Route Details

Aircraft Information
Group: North America Fleet
Types: B738, B752, B762, B763
Route Data
Distance: 955nm
Duration: 3h 00m
Origin METAR: KBDL 160051Z 17007KT 10SM FEW075 FEW110 SCT250 23/12 A3001 RMK AO2 SLP161 T02280117
Dest. METAR: KLAL 160050Z 22005KT 10SM SKC 27/23 A2991
Freight Data
(for Aug 16, 2022)
Load Factor:
35%
Manifested Cargo: 34,150lbs
Financial History
Total Freight: 32,522lbs
Average Load: 0lbs/flt
Fuel Used: 17,811lbs
Avg. Fuel Used: 0lbs/flt
Fuel Expense: $7,124
Avg. Fuel Expense: $0
Avg. Fuel Cost: $0/lbs
Total Gross Income: $82,931
Pilot Pay: $239
Total Expenses: $16,522
Total Revenue: $58,623
Average Revenue: $0

Capitol Logistics 428




KBDL
Bradley International Airport
Windsor Locks, Connecticut
KLAL
Lakeland Linder Regional Airport
Lakeland, Florida

Activity Log

Date Flight Route Aircraft Duration
07/08/2022 CPX428 CSTL9 CCC DCT EMJAY J174 SAWED Q64 TYI DCT MRPIT Q409 PUPYY DCT KYYUU LUBBR3 B752 2h 46m